Arab, Missouri
Current Conditions -  °F | °C
As of 4:53 PM on Thursday 27 Nov 2014 (Local Time) from KPOF Reporting Station
Clear Clear  
Wind Chill:   Ceiling: Unl
Heat Index:   Visibility: 10mi
Dew Point: -4°   Wind: 0mph
Humidity: 62%   Direction: NA
Pressure: 30.45"   Gusts: NA
Location:  37.1241°N, 90.0834°W
Report Text: KPOF 272253Z AUTO 00000KT 10SM CLR 03/M04 A3045 RMK AO2 SLP316 T00281039
Loading
Personal Weather Stations






























Interactive Weather Map New forecast layout! Learn more

10-Day Weather Forecast

Advertisements
Track Severe Weather on mobile